sensor_id;sensor_type;location;lat;lon;timestamp;pressure;altitude;pressure_sealevel;temperature;humidity
82033;BME280;71595;52.180;4.512;2023-07-20T00:00:27;101603.38;;;16.89;73.04
82033;BME280;71595;52.180;4.512;2023-07-20T00:03:10;101601.59;;;16.81;73.47
82033;BME280;71595;52.180;4.512;2023-07-20T00:05:37;101609.16;;;16.80;73.30
82033;BME280;71595;52.180;4.512;2023-07-20T00:08:03;101602.06;;;16.83;73.59
82033;BME280;71595;52.180;4.512;2023-07-20T00:10:28;101604.13;;;16.86;73.18
82033;BME280;71595;52.180;4.512;2023-07-20T00:12:54;101599.25;;;16.83;73.30
82033;BME280;71595;52.180;4.512;2023-07-20T00:15:19;101603.03;;;16.75;73.85
82033;BME280;71595;52.180;4.512;2023-07-20T00:17:44;101600.53;;;16.69;74.17
82033;BME280;71595;52.180;4.512;2023-07-20T00:20:10;101614.06;;;16.67;74.22
82033;BME280;71595;52.180;4.512;2023-07-20T00:22:36;101603.34;;;16.69;74.23
82033;BME280;71595;52.180;4.512;2023-07-20T00:25:02;101604.06;;;16.66;74.24
82033;BME280;71595;52.180;4.512;2023-07-20T00:27:27;101601.56;;;16.61;74.07
82033;BME280;71595;52.180;4.512;2023-07-20T00:29:53;101609.38;;;16.56;74.33
82033;BME280;71595;52.180;4.512;2023-07-20T00:32:19;101609.81;;;16.58;74.44
82033;BME280;71595;52.180;4.512;2023-07-20T00:34:44;101603.00;;;16.55;74.80
82033;BME280;71595;52.180;4.512;2023-07-20T00:37:09;101609.66;;;16.50;74.98
82033;BME280;71595;52.180;4.512;2023-07-20T00:39:35;101608.69;;;16.43;75.13
82033;BME280;71595;52.180;4.512;2023-07-20T00:42:00;101607.06;;;16.42;74.83
82033;BME280;71595;52.180;4.512;2023-07-20T00:44:28;101606.97;;;16.38;74.74
82033;BME280;71595;52.180;4.512;2023-07-20T00:46:54;101604.56;;;16.37;74.71
82033;BME280;71595;52.180;4.512;2023-07-20T00:49:20;101587.84;;;16.37;74.58
82033;BME280;71595;52.180;4.512;2023-07-20T00:51:48;101595.00;;;16.38;74.27
82033;BME280;71595;52.180;4.512;2023-07-20T00:54:14;101590.34;;;16.42;73.95
82033;BME280;71595;52.180;4.512;2023-07-20T00:56:40;101588.00;;;16.28;74.57
82033;BME280;71595;52.180;4.512;2023-07-20T00:59:05;101586.66;;;16.22;74.69
82033;BME280;71595;52.180;4.512;2023-07-20T01:01:31;101593.50;;;16.24;74.83
82033;BME280;71595;52.180;4.512;2023-07-20T01:03:56;101595.38;;;16.20;75.06
82033;BME280;71595;52.180;4.512;2023-07-20T01:06:31;101602.88;;;16.16;75.12
82033;BME280;71595;52.180;4.512;2023-07-20T01:12:30;101603.56;;;16.13;75.06
82033;BME280;71595;52.180;4.512;2023-07-20T01:14:57;101600.88;;;16.16;75.23
82033;BME280;71595;52.180;4.512;2023-07-20T01:17:22;101587.31;;;16.15;75.11
82033;BME280;71595;52.180;4.512;2023-07-20T01:19:49;101602.22;;;16.07;75.39
82033;BME280;71595;52.180;4.512;2023-07-20T01:22:38;101603.75;;;16.04;75.54
82033;BME280;71595;52.180;4.512;2023-07-20T01:30:45;101612.03;;;16.01;76.01
82033;BME280;71595;52.180;4.512;2023-07-20T01:33:15;101614.34;;;15.98;76.09
82033;BME280;71595;52.180;4.512;2023-07-20T01:35:42;101613.88;;;15.96;76.16
82033;BME280;71595;52.180;4.512;2023-07-20T01:38:09;101615.06;;;15.95;75.85
82033;BME280;71595;52.180;4.512;2023-07-20T01:40:35;101612.25;;;15.95;75.80
82033;BME280;71595;52.180;4.512;2023-07-20T01:43:02;101614.59;;;15.93;75.95
82033;BME280;71595;52.180;4.512;2023-07-20T01:45:27;101616.13;;;15.91;76.20
82033;BME280;71595;52.180;4.512;2023-07-20T01:47:53;101612.53;;;15.90;76.15
82033;BME280;71595;52.180;4.512;2023-07-20T01:50:18;101611.38;;;15.91;76.14
82033;BME280;71595;52.180;4.512;2023-07-20T01:52:44;101607.53;;;15.96;76.04
82033;BME280;71595;52.180;4.512;2023-07-20T01:55:09;101613.97;;;16.00;75.69
82033;BME280;71595;52.180;4.512;2023-07-20T01:57:37;101613.81;;;16.09;75.37
82033;BME280;71595;52.180;4.512;2023-07-20T02:00:03;101612.19;;;16.08;75.44
82033;BME280;71595;52.180;4.512;2023-07-20T02:02:29;101608.25;;;16.09;75.36
82033;BME280;71595;52.180;4.512;2023-07-20T02:04:54;101613.47;;;16.10;75.25
82033;BME280;71595;52.180;4.512;2023-07-20T02:07:19;101619.81;;;16.11;75.03
82033;BME280;71595;52.180;4.512;2023-07-20T02:09:45;101616.16;;;16.07;75.16
82033;BME280;71595;52.180;4.512;2023-07-20T02:12:10;101617.59;;;16.01;75.43
82033;BME280;71595;52.180;4.512;2023-07-20T02:14:36;101610.38;;;15.99;75.40
82033;BME280;71595;52.180;4.512;2023-07-20T02:17:01;101621.53;;;15.99;75.30
82033;BME280;71595;52.180;4.512;2023-07-20T02:19:27;101609.22;;;16.01;75.15
82033;BME280;71595;52.180;4.512;2023-07-20T02:21:52;101609.22;;;16.01;75.19
82033;BME280;71595;52.180;4.512;2023-07-20T02:24:18;101606.81;;;15.99;74.84
82033;BME280;71595;52.180;4.512;2023-07-20T02:26:43;101603.53;;;15.97;74.96
82033;BME280;71595;52.180;4.512;2023-07-20T02:29:09;101607.97;;;15.98;74.83
82033;BME280;71595;52.180;4.512;2023-07-20T02:31:39;101602.03;;;15.99;74.74
82033;BME280;71595;52.180;4.512;2023-07-20T02:34:07;101613.09;;;15.96;75.08
82033;BME280;71595;52.180;4.512;2023-07-20T02:36:34;101600.94;;;15.88;75.29
82033;BME280;71595;52.180;4.512;2023-07-20T02:39:11;101609.09;;;15.81;75.45
82033;BME280;71595;52.180;4.512;2023-07-20T02:41:37;101619.53;;;15.84;75.30
82033;BME280;71595;52.180;4.512;2023-07-20T02:44:03;101614.22;;;15.79;75.33
82033;BME280;71595;52.180;4.512;2023-07-20T02:46:28;101617.13;;;15.70;75.45
82033;BME280;71595;52.180;4.512;2023-07-20T02:48:55;101613.34;;;15.62;76.12
82033;BME280;71595;52.180;4.512;2023-07-20T02:51:21;101604.81;;;15.55;76.43
82033;BME280;71595;52.180;4.512;2023-07-20T02:53:46;101613.88;;;15.52;76.53
82033;BME280;71595;52.180;4.512;2023-07-20T02:56:11;101605.75;;;15.47;76.60
82033;BME280;71595;52.180;4.512;2023-07-20T02:58:41;101610.53;;;15.46;76.22
82033;BME280;71595;52.180;4.512;2023-07-20T03:01:09;101613.22;;;15.43;76.07
82033;BME280;71595;52.180;4.512;2023-07-20T03:03:35;101613.22;;;15.43;76.16
82033;BME280;71595;52.180;4.512;2023-07-20T03:06:04;101612.31;;;15.39;76.32
82033;BME280;71595;52.180;4.512;2023-07-20T03:08:29;101623.88;;;15.41;76.51
82033;BME280;71595;52.180;4.512;2023-07-20T03:10:55;101622.16;;;15.36;76.81
82033;BME280;71595;52.180;4.512;2023-07-20T03:13:20;101626.13;;;15.35;76.38
82033;BME280;71595;52.180;4.512;2023-07-20T03:15:46;101619.09;;;15.25;76.39
82033;BME280;71595;52.180;4.512;2023-07-20T03:18:11;101623.13;;;15.28;76.70
82033;BME280;71595;52.180;4.512;2023-07-20T03:20:37;101623.91;;;15.28;76.04
82033;BME280;71595;52.180;4.512;2023-07-20T03:23:03;101630.31;;;15.29;75.94
82033;BME280;71595;52.180;4.512;2023-07-20T03:25:28;101634.06;;;15.21;77.07
82033;BME280;71595;52.180;4.512;2023-07-20T03:27:53;101637.41;;;15.14;77.50
82033;BME280;71595;52.180;4.512;2023-07-20T03:30:19;101636.34;;;15.19;77.25
82033;BME280;71595;52.180;4.512;2023-07-20T03:32:44;101641.22;;;15.22;77.34
82033;BME280;71595;52.180;4.512;2023-07-20T03:35:09;101635.31;;;15.23;77.46
82033;BME280;71595;52.180;4.512;2023-07-20T03:37:35;101640.41;;;15.21;77.52
82033;BME280;71595;52.180;4.512;2023-07-20T03:40:03;101640.16;;;15.26;77.42
82033;BME280;71595;52.180;4.512;2023-07-20T03:42:29;101641.09;;;15.31;77.43
82033;BME280;71595;52.180;4.512;2023-07-20T03:44:55;101639.19;;;15.35;76.88
82033;BME280;71595;52.180;4.512;2023-07-20T03:47:21;101644.28;;;15.45;76.62
82033;BME280;71595;52.180;4.512;2023-07-20T03:49:46;101645.00;;;15.42;76.75
82033;BME280;71595;52.180;4.512;2023-07-20T03:52:12;101653.06;;;15.47;76.94
82033;BME280;71595;52.180;4.512;2023-07-20T03:54:37;101650.06;;;15.52;76.83
82033;BME280;71595;52.180;4.512;2023-07-20T03:57:03;101655.72;;;15.56;76.78
82033;BME280;71595;52.180;4.512;2023-07-20T03:59:28;101650.25;;;15.59;76.84
82033;BME280;71595;52.180;4.512;2023-07-20T04:01:53;101656.28;;;15.61;77.12
82033;BME280;71595;52.180;4.512;2023-07-20T04:04:19;101654.41;;;15.66;76.98
82033;BME280;71595;52.180;4.512;2023-07-20T04:06:45;101652.44;;;15.66;76.76
82033;BME280;71595;52.180;4.512;2023-07-20T04:09:11;101660.81;;;15.66;76.57
82033;BME280;71595;52.180;4.512;2023-07-20T04:11:36;101657.53;;;15.64;76.74
82033;BME280;71595;52.180;4.512;2023-07-20T04:14:02;101650.03;;;15.64;76.41
82033;BME280;71595;52.180;4.512;2023-07-20T04:16:27;101657.66;;;15.68;76.35
82033;BME280;71595;52.180;4.512;2023-07-20T04:18:55;101656.47;;;15.69;76.05
82033;BME280;71595;52.180;4.512;2023-07-20T04:21:21;101655.56;;;15.77;75.84
82033;BME280;71595;52.180;4.512;2023-07-20T04:23:46;101655.56;;;15.77;75.82
82033;BME280;71595;52.180;4.512;2023-07-20T04:26:11;101661.31;;;15.84;75.71
82033;BME280;71595;52.180;4.512;2023-07-20T04:28:38;101649.91;;;15.89;75.55
82033;BME280;71595;52.180;4.512;2023-07-20T04:31:15;101652.69;;;15.89;75.12
82033;BME280;71595;52.180;4.512;2023-07-20T04:33:41;101656.84;;;15.95;74.79
82033;BME280;71595;52.180;4.512;2023-07-20T04:36:07;101657.53;;;15.92;74.31
82033;BME280;71595;52.180;4.512;2023-07-20T04:38:33;101665.66;;;15.97;73.93
82033;BME280;71595;52.180;4.512;2023-07-20T04:40:59;101665.66;;;15.97;73.30
82033;BME280;71595;52.180;4.512;2023-07-20T04:43:25;101670.53;;;16.01;72.78
82033;BME280;71595;52.180;4.512;2023-07-20T04:45:50;101668.19;;;16.03;72.94
82033;BME280;71595;52.180;4.512;2023-07-20T04:48:17;101672.69;;;16.07;72.70
82033;BME280;71595;52.180;4.512;2023-07-20T04:50:44;101669.63;;;16.12;72.36
82033;BME280;71595;52.180;4.512;2023-07-20T04:53:11;101678.09;;;16.16;72.39
82033;BME280;71595;52.180;4.512;2023-07-20T04:55:38;101677.63;;;16.14;70.74
82033;BME280;71595;52.180;4.512;2023-07-20T04:58:04;101681.31;;;16.18;69.76
82033;BME280;71595;52.180;4.512;2023-07-20T05:00:30;101675.47;;;16.23;69.53
82033;BME280;71595;52.180;4.512;2023-07-20T05:02:55;101676.03;;;16.29;69.51
82033;BME280;71595;52.180;4.512;2023-07-20T05:05:21;101684.47;;;16.32;69.02
82033;BME280;71595;52.180;4.512;2023-07-20T05:07:46;101675.69;;;16.30;67.64
82033;BME280;71595;52.180;4.512;2023-07-20T05:10:12;101678.03;;;16.28;66.99
82033;BME280;71595;52.180;4.512;2023-07-20T05:12:37;101673.16;;;16.25;66.43
82033;BME280;71595;52.180;4.512;2023-07-20T05:15:03;101679.97;;;16.28;66.70
82033;BME280;71595;52.180;4.512;2023-07-20T05:17:29;101678.38;;;16.27;66.35
82033;BME280;71595;52.180;4.512;2023-07-20T05:19:54;101671.44;;;16.21;66.66
82033;BME280;71595;52.180;4.512;2023-07-20T05:22:20;101683.94;;;16.27;66.74
82033;BME280;71595;52.180;4.512;2023-07-20T05:24:45;101684.75;;;16.27;65.65
82033;BME280;71595;52.180;4.512;2023-07-20T05:27:11;101674.75;;;16.26;65.55
82033;BME280;71595;52.180;4.512;2023-07-20T05:29:36;101672.09;;;16.30;64.85
82033;BME280;71595;52.180;4.512;2023-07-20T05:32:01;101679.19;;;16.27;65.24
82033;BME280;71595;52.180;4.512;2023-07-20T05:34:28;101673.69;;;16.31;65.07
82033;BME280;71595;52.180;4.512;2023-07-20T05:36:54;101680.09;;;16.31;64.55
82033;BME280;71595;52.180;4.512;2023-07-20T05:39:19;101675.31;;;16.32;64.58
82033;BME280;71595;52.180;4.512;2023-07-20T05:41:45;101674.03;;;16.29;64.55
82033;BME280;71595;52.180;4.512;2023-07-20T05:44:10;101674.97;;;16.33;65.03
82033;BME280;71595;52.180;4.512;2023-07-20T05:46:35;101674.03;;;16.29;64.21
82033;BME280;71595;52.180;4.512;2023-07-20T05:49:01;101686.53;;;16.35;64.95
82033;BME280;71595;52.180;4.512;2023-07-20T05:51:27;101682.69;;;16.40;64.62
82033;BME280;71595;52.180;4.512;2023-07-20T05:53:52;101678.81;;;16.45;65.05
82033;BME280;71595;52.180;4.512;2023-07-20T05:56:17;101676.47;;;16.47;64.90
82033;BME280;71595;52.180;4.512;2023-07-20T05:58:43;101678.38;;;16.43;64.78
82033;BME280;71595;52.180;4.512;2023-07-20T06:01:08;101678.19;;;16.51;64.71
82033;BME280;71595;52.180;4.512;2023-07-20T06:03:34;101682.69;;;16.56;64.88
82033;BME280;71595;52.180;4.512;2023-07-20T06:06:03;101672.00;;;16.58;64.79
82033;BME280;71595;52.180;4.512;2023-07-20T06:08:30;101676.03;;;16.61;65.43
82033;BME280;71595;52.180;4.512;2023-07-20T06:11:04;101681.69;;;16.64;64.50
82033;BME280;71595;52.180;4.512;2023-07-20T06:13:30;101677.34;;;16.67;63.98
82033;BME280;71595;52.180;4.512;2023-07-20T06:15:56;101674.94;;;16.65;64.37
82033;BME280;71595;52.180;4.512;2023-07-20T06:18:24;101681.84;;;16.71;63.74
82033;BME280;71595;52.180;4.512;2023-07-20T06:20:50;101677.19;;;16.76;63.88
82033;BME280;71595;52.180;4.512;2023-07-20T06:23:17;101680.78;;;16.76;63.31
82033;BME280;71595;52.180;4.512;2023-07-20T06:25:42;101676.91;;;16.81;63.55
82033;BME280;71595;52.180;4.512;2023-07-20T06:28:08;101679.78;;;16.84;63.00
82033;BME280;71595;52.180;4.512;2023-07-20T06:30:36;101679.78;;;16.84;63.04
82033;BME280;71595;52.180;4.512;2023-07-20T06:33:01;101682.59;;;16.84;63.04
82033;BME280;71595;52.180;4.512;2023-07-20T06:35:27;101677.19;;;16.76;63.34
82033;BME280;71595;52.180;4.512;2023-07-20T06:37:52;101687.78;;;16.86;63.56
82033;BME280;71595;52.180;4.512;2023-07-20T06:40:17;101687.44;;;16.87;63.23
82033;BME280;71595;52.180;4.512;2023-07-20T06:42:43;101685.47;;;16.88;63.88
82033;BME280;71595;52.180;4.512;2023-07-20T06:45:09;101689.13;;;16.92;63.15
82033;BME280;71595;52.180;4.512;2023-07-20T06:47:35;101698.84;;;16.82;62.89
82033;BME280;71595;52.180;4.512;2023-07-20T06:50:00;101693.13;;;16.91;63.47
82033;BME280;71595;52.180;4.512;2023-07-20T06:52:25;101692.03;;;16.96;63.52
82033;BME280;71595;52.180;4.512;2023-07-20T06:54:56;101696.06;;;16.98;63.02
82033;BME280;71595;52.180;4.512;2023-07-20T06:57:22;101697.03;;;17.06;62.55
82033;BME280;71595;52.180;4.512;2023-07-20T06:59:50;101695.50;;;17.09;62.63
82033;BME280;71595;52.180;4.512;2023-07-20T07:02:16;101692.44;;;17.14;62.71
82033;BME280;71595;52.180;4.512;2023-07-20T07:04:42;101692.59;;;17.21;63.42
82033;BME280;71595;52.180;4.512;2023-07-20T07:07:07;101693.50;;;17.25;62.30
82033;BME280;71595;52.180;4.512;2023-07-20T07:09:32;101697.44;;;17.24;62.48
82033;BME280;71595;52.180;4.512;2023-07-20T07:11:58;101703.94;;;17.28;62.76
82033;BME280;71595;52.180;4.512;2023-07-20T07:14:23;101703.63;;;17.33;62.78
82033;BME280;71595;52.180;4.512;2023-07-20T07:16:49;101704.06;;;17.35;62.15
82033;BME280;71595;52.180;4.512;2023-07-20T07:19:14;101699.38;;;17.39;61.60
82033;BME280;71595;52.180;4.512;2023-07-20T07:21:40;101701.06;;;17.44;61.10
82033;BME280;71595;52.180;4.512;2023-07-20T07:24:05;101700.41;;;17.51;60.88
82033;BME280;71595;52.180;4.512;2023-07-20T07:26:32;101702.03;;;17.52;60.18
82033;BME280;71595;52.180;4.512;2023-07-20T07:28:58;101700.78;;;17.49;60.19
82033;BME280;71595;52.180;4.512;2023-07-20T07:31:25;101711.75;;;17.58;60.08
82033;BME280;71595;52.180;4.512;2023-07-20T07:33:50;101700.56;;;17.58;59.44
82033;BME280;71595;52.180;4.512;2023-07-20T07:36:16;101703.97;;;17.67;59.67
82033;BME280;71595;52.180;4.512;2023-07-20T07:38:41;101705.72;;;17.75;59.42
82033;BME280;71595;52.180;4.512;2023-07-20T07:41:06;101708.94;;;17.77;57.80
82033;BME280;71595;52.180;4.512;2023-07-20T07:43:32;101708.28;;;17.84;56.96
82033;BME280;71595;52.180;4.512;2023-07-20T07:45:58;101705.13;;;17.86;55.46
82033;BME280;71595;52.180;4.512;2023-07-20T07:48:23;101709.31;;;17.76;55.03
82033;BME280;71595;52.180;4.512;2023-07-20T07:50:50;101704.97;;;17.78;55.93
82033;BME280;71595;52.180;4.512;2023-07-20T07:53:16;101705.22;;;17.89;55.83
82033;BME280;71595;52.180;4.512;2023-07-20T07:55:41;101714.47;;;17.93;55.42
82033;BME280;71595;52.180;4.512;2023-07-20T07:58:06;101714.19;;;17.99;54.93
82033;BME280;71595;52.180;4.512;2023-07-20T08:00:32;101711.03;;;18.00;55.37
82033;BME280;71595;52.180;4.512;2023-07-20T08:02:57;101712.50;;;17.94;54.67
82033;BME280;71595;52.180;4.512;2023-07-20T08:05:23;101711.50;;;17.86;54.84
82033;BME280;71595;52.180;4.512;2023-07-20T08:07:49;101716.31;;;17.86;55.23
82033;BME280;71595;52.180;4.512;2023-07-20T08:10:14;101712.63;;;17.82;55.18
82033;BME280;71595;52.180;4.512;2023-07-20T08:12:40;101710.72;;;17.86;55.22
82033;BME280;71595;52.180;4.512;2023-07-20T08:15:05;101729.25;;;17.94;54.75
82033;BME280;71595;52.180;4.512;2023-07-20T08:17:31;101718.44;;;17.92;55.47
82033;BME280;71595;52.180;4.512;2023-07-20T08:19:56;101728.97;;;17.99;55.44
82033;BME280;71595;52.180;4.512;2023-07-20T08:22:22;101711.03;;;18.00;55.59
82033;BME280;71595;52.180;4.512;2023-07-20T08:24:47;101720.34;;;18.08;55.03
82033;BME280;71595;52.180;4.512;2023-07-20T08:27:12;101708.72;;;18.06;54.46
82033;BME280;71595;52.180;4.512;2023-07-20T08:29:38;101712.75;;;18.08;54.59
82033;BME280;71595;52.180;4.512;2023-07-20T08:32:04;101711.13;;;18.07;54.51
82033;BME280;71595;52.180;4.512;2023-07-20T08:34:30;101707.97;;;18.09;54.47
82033;BME280;71595;52.180;4.512;2023-07-20T08:36:56;101706.44;;;18.11;54.70
82033;BME280;71595;52.180;4.512;2023-07-20T08:39:22;101710.91;;;18.16;54.35
82033;BME280;71595;52.180;4.512;2023-07-20T08:41:48;101717.81;;;18.22;53.82
82033;BME280;71595;52.180;4.512;2023-07-20T08:44:14;101717.03;;;18.22;53.10
82033;BME280;71595;52.180;4.512;2023-07-20T08:46:40;101725.47;;;18.25;53.65
82033;BME280;71595;52.180;4.512;2023-07-20T08:49:06;101714.34;;;18.29;53.55
82033;BME280;71595;52.180;4.512;2023-07-20T08:51:32;101721.13;;;18.28;53.18
82033;BME280;71595;52.180;4.512;2023-07-20T08:53:58;101719.63;;;18.34;53.46
82033;BME280;71595;52.180;4.512;2023-07-20T08:56:25;101723.28;;;18.38;53.08
82033;BME280;71595;52.180;4.512;2023-07-20T08:58:51;101712.56;;;18.40;53.14
82033;BME280;71595;52.180;4.512;2023-07-20T09:01:18;101710.94;;;18.39;52.84
82033;BME280;71595;52.180;4.512;2023-07-20T09:03:44;101713.78;;;18.43;52.60
82033;BME280;71595;52.180;4.512;2023-07-20T09:06:10;101715.50;;;18.51;53.26
82033;BME280;71595;52.180;4.512;2023-07-20T09:08:38;101720.69;;;18.49;51.52
82033;BME280;71595;52.180;4.512;2023-07-20T09:11:04;101716.78;;;18.54;52.00
82033;BME280;71595;52.180;4.512;2023-07-20T09:13:29;101716.06;;;18.60;52.53
82033;BME280;71595;52.180;4.512;2023-07-20T09:15:54;101721.66;;;18.60;51.59
82033;BME280;71595;52.180;4.512;2023-07-20T09:18:31;101717.69;;;18.61;50.66
82033;BME280;71595;52.180;4.512;2023-07-20T09:21:05;101713.72;;;18.62;50.12
82033;BME280;71595;52.180;4.512;2023-07-20T09:23:36;101713.66;;;18.59;49.82
82033;BME280;71595;52.180;4.512;2023-07-20T09:26:12;101707.63;;;18.57;49.85
82033;BME280;71595;52.180;4.512;2023-07-20T09:28:47;101714.91;;;18.61;49.85
82033;BME280;71595;52.180;4.512;2023-07-20T09:31:17;101716.16;;;18.64;51.19
82033;BME280;71595;52.180;4.512;2023-07-20T09:33:44;101713.81;;;18.69;51.71
82033;BME280;71595;52.180;4.512;2023-07-20T09:36:09;101720.34;;;18.77;52.16
82033;BME280;71595;52.180;4.512;2023-07-20T09:38:37;101713.97;;;18.77;51.26
82033;BME280;71595;52.180;4.512;2023-07-20T09:41:05;101721.97;;;18.78;50.75
82033;BME280;71595;52.180;4.512;2023-07-20T09:43:31;101719.75;;;18.88;51.52
82033;BME280;71595;52.180;4.512;2023-07-20T09:45:58;101712.41;;;18.79;50.78
82033;BME280;71595;52.180;4.512;2023-07-20T09:48:24;101720.50;;;18.84;50.13
82033;BME280;71595;52.180;4.512;2023-07-20T09:50:50;101714.91;;;18.84;50.63
82033;BME280;71595;52.180;4.512;2023-07-20T09:53:17;101711.41;;;18.91;50.30
82033;BME280;71595;52.180;4.512;2023-07-20T09:55:47;101703.34;;;18.86;50.11
82033;BME280;71595;52.180;4.512;2023-07-20T09:58:14;101702.16;;;18.87;50.61
82033;BME280;71595;52.180;4.512;2023-07-20T10:00:40;101701.03;;;18.92;49.92
82033;BME280;71595;52.180;4.512;2023-07-20T10:03:11;101705.44;;;18.93;50.43
82033;BME280;71595;52.180;4.512;2023-07-20T10:05:40;101703.88;;;18.95;51.12
82033;BME280;71595;52.180;4.512;2023-07-20T10:08:11;101704.34;;;19.01;51.68
82033;BME280;71595;52.180;4.512;2023-07-20T10:10:38;101702.38;;;19.01;50.68
82033;BME280;71595;52.180;4.512;2023-07-20T10:13:05;101707.25;;;19.08;50.49
82033;BME280;71595;52.180;4.512;2023-07-20T10:16:06;101718.47;;;19.08;50.16
82033;BME280;71595;52.180;4.512;2023-07-20T10:21:06;101713.97;;;19.30;49.89
82033;BME280;71595;52.180;4.512;2023-07-20T10:23:32;101715.63;;;19.35;50.93
82033;BME280;71595;52.180;4.512;2023-07-20T10:26:01;101708.75;;;19.29;50.56
82033;BME280;71595;52.180;4.512;2023-07-20T10:28:28;101710.72;;;19.25;50.34
82033;BME280;71595;52.180;4.512;2023-07-20T10:30:53;101713.94;;;19.27;50.38
82033;BME280;71595;52.180;4.512;2023-07-20T10:33:19;101713.13;;;19.26;49.83
82033;BME280;71595;52.180;4.512;2023-07-20T10:35:56;101709.19;;;19.31;49.75
82033;BME280;71595;52.180;4.512;2023-07-20T10:41:37;101700.41;;;19.32;49.42
82033;BME280;71595;52.180;4.512;2023-07-20T10:44:06;101704.88;;;19.37;49.31
82033;BME280;71595;52.180;4.512;2023-07-20T10:49:08;101702.09;;;19.10;50.07
82033;BME280;71595;52.180;4.512;2023-07-20T10:51:44;101702.63;;;19.19;50.12
82033;BME280;71595;52.180;4.512;2023-07-20T10:56:47;101709.88;;;19.24;50.55
82033;BME280;71595;52.180;4.512;2023-07-20T10:59:19;101705.56;;;19.30;50.30
82033;BME280;71595;52.180;4.512;2023-07-20T11:01:46;101705.94;;;19.29;49.84
82033;BME280;71595;52.180;4.512;2023-07-20T11:04:14;101706.03;;;19.32;49.48
82033;BME280;71595;52.180;4.512;2023-07-20T11:06:43;101691.63;;;19.34;49.63
82033;BME280;71595;52.180;4.512;2023-07-20T11:11:47;101690.13;;;19.40;49.39
82033;BME280;71595;52.180;4.512;2023-07-20T11:14:25;101685.72;;;19.43;49.48
82033;BME280;71595;52.180;4.512;2023-07-20T11:16:52;101685.34;;;19.44;48.43
82033;BME280;71595;52.180;4.512;2023-07-20T11:19:24;101682.94;;;19.43;48.90
82033;BME280;71595;52.180;4.512;2023-07-20T11:21:54;101681.38;;;19.45;48.45
82033;BME280;71595;52.180;4.512;2023-07-20T11:24:20;101669.78;;;19.47;48.45
82033;BME280;71595;52.180;4.512;2023-07-20T11:26:50;101677.44;;;19.50;48.88
82033;BME280;71595;52.180;4.512;2023-07-20T11:29:17;101673.03;;;19.52;49.28
82033;BME280;71595;52.180;4.512;2023-07-20T11:31:44;101674.28;;;19.55;48.56
82033;BME280;71595;52.180;4.512;2023-07-20T11:34:15;101680.69;;;19.55;48.47
82033;BME280;71595;52.180;4.512;2023-07-20T11:36:42;101675.84;;;19.52;47.70
82033;BME280;71595;52.180;4.512;2023-07-20T11:39:09;101675.47;;;19.54;48.21
82033;BME280;71595;52.180;4.512;2023-07-20T11:41:34;101667.13;;;19.57;49.15
82033;BME280;71595;52.180;4.512;2023-07-20T11:44:00;101670.00;;;19.65;48.59
82033;BME280;71595;52.180;4.512;2023-07-20T11:46:29;101662.81;;;19.67;48.17
82033;BME280;71595;52.180;4.512;2023-07-20T11:48:57;101666.44;;;19.68;48.13
82033;BME280;71595;52.180;4.512;2023-07-20T11:51:23;101665.63;;;19.67;47.45
82033;BME280;71595;52.180;4.512;2023-07-20T11:53:49;101665.66;;;19.71;47.42
82033;BME280;71595;52.180;4.512;2023-07-20T11:56:15;101662.53;;;19.76;47.87
82033;BME280;71595;52.180;4.512;2023-07-20T11:58:44;101664.25;;;19.84;48.19
82033;BME280;71595;52.180;4.512;2023-07-20T12:01:12;101667.47;;;19.86;47.87
82033;BME280;71595;52.180;4.512;2023-07-20T12:03:37;101665.09;;;19.88;47.43
82033;BME280;71595;52.180;4.512;2023-07-20T12:06:09;101672.25;;;19.82;47.82
82033;BME280;71595;52.180;4.512;2023-07-20T12:08:38;101665.88;;;19.85;47.65
82033;BME280;71595;52.180;4.512;2023-07-20T12:11:03;101666.66;;;19.86;50.35
82033;BME280;71595;52.180;4.512;2023-07-20T12:13:36;101658.63;;;19.81;47.44
82033;BME280;71595;52.180;4.512;2023-07-20T12:16:19;101661.81;;;19.79;48.37
82033;BME280;71595;52.180;4.512;2023-07-20T12:18:45;101656.19;;;19.79;47.46
82033;BME280;71595;52.180;4.512;2023-07-20T12:21:10;101665.03;;;19.85;47.82
82033;BME280;71595;52.180;4.512;2023-07-20T12:23:40;101661.03;;;19.82;47.22
82033;BME280;71595;52.180;4.512;2023-07-20T12:26:10;101662.72;;;19.90;48.01
82033;BME280;71595;52.180;4.512;2023-07-20T12:28:39;101661.47;;;19.88;47.69
82033;BME280;71595;52.180;4.512;2023-07-20T12:31:06;101653.53;;;19.93;49.45
82033;BME280;71595;52.180;4.512;2023-07-20T12:33:31;101648.78;;;19.98;47.20
82033;BME280;71595;52.180;4.512;2023-07-20T12:35:57;101653.94;;;19.96;47.56
82033;BME280;71595;52.180;4.512;2023-07-20T12:38:24;101654.78;;;19.96;46.89
82033;BME280;71595;52.180;4.512;2023-07-20T12:40:50;101660.00;;;19.98;46.93
82033;BME280;71595;52.180;4.512;2023-07-20T12:43:16;101655.47;;;19.89;47.09
82033;BME280;71595;52.180;4.512;2023-07-20T12:45:42;101659.91;;;19.90;46.98
82033;BME280;71595;52.180;4.512;2023-07-20T12:48:13;101647.53;;;19.91;46.91
82033;BME280;71595;52.180;4.512;2023-07-20T12:50:39;101651.91;;;19.92;47.59
82033;BME280;71595;52.180;4.512;2023-07-20T12:53:04;101649.19;;;20.00;48.08
82033;BME280;71595;52.180;4.512;2023-07-20T12:55:33;101650.81;;;20.01;47.88
82033;BME280;71595;52.180;4.512;2023-07-20T12:57:58;101645.97;;;19.98;45.85
82033;BME280;71595;52.180;4.512;2023-07-20T13:00:24;101643.63;;;20.07;46.55
82033;BME280;71595;52.180;4.512;2023-07-20T13:03:14;101644.13;;;20.16;46.34
82033;BME280;71595;52.180;4.512;2023-07-20T13:05:41;101647.31;;;20.15;48.29
82033;BME280;71595;52.180;4.512;2023-07-20T13:08:14;101641.31;;;20.16;45.53
82033;BME280;71595;52.180;4.512;2023-07-20T13:10:39;101646.91;;;20.13;46.40